Time;durP1;ratioP1;P1;durP2;ratioP2;P2;SDS_P1;SDS_P2;PMS_P1;PMS_P2;Temp;Humidity;BMP_temperature;BMP_pressure;BME280_temperature;BME280_humidity;BME280_pressure;Samples;Min_cycle;Max_cycle;Signal;HPM_P1;HPM_P2
2022/04/28 00:00:27;;;;;;;30.80;23.70;;;;;;;7.97;100.00;99641.88;104995;1271;61791;-78
2022/04/28 00:03:03;;;;;;;29.40;23.60;;;;;;;7.92;100.00;99642.13;105010;1271;73391;-79
2022/04/28 00:05:29;;;;;;;30.80;23.90;;;;;;;7.87;100.00;99647.13;104884;1271;61387;-77
2022/04/28 00:07:56;;;;;;;31.30;23.30;;;;;;;7.82;100.00;99643.45;105020;1271;61393;-78
2022/04/28 00:10:23;;;;;;;33.90;26.10;;;;;;;7.77;100.00;99643.86;105007;1271;61296;-78
2022/04/28 00:12:49;;;;;;;31.30;24.40;;;;;;;7.69;100.00;99637.64;105060;1271;61423;-78
2022/04/28 00:15:15;;;;;;;32.00;25.40;;;;;;;7.65;100.00;99639.81;105008;1271;61378;-78
2022/04/28 00:17:41;;;;;;;30.40;24.70;;;;;;;7.59;100.00;99640.08;105036;1271;61297;-78
2022/04/28 00:20:08;;;;;;;31.40;25.40;;;;;;;7.54;100.00;99638.36;105095;1271;61363;-78
2022/04/28 00:22:36;;;;;;;30.80;25.00;;;;;;;7.48;100.00;99640.75;105067;1271;76438;-79
2022/04/28 00:25:04;;;;;;;36.40;25.80;;;;;;;7.42;100.00;99643.81;105009;1271;61313;-77
2022/04/28 00:27:29;;;;;;;32.20;24.90;;;;;;;7.36;100.00;99647.80;105039;1271;74364;-77
2022/04/28 00:29:56;;;;;;;37.10;26.00;;;;;;;7.30;100.00;99656.02;105023;1271;61325;-79
2022/04/28 00:32:23;;;;;;;35.30;26.50;;;;;;;7.23;100.00;99656.63;105091;1271;61291;-78
2022/04/28 00:34:48;;;;;;;31.40;25.30;;;;;;;7.19;100.00;99658.44;105000;1271;61500;-78
2022/04/28 00:37:17;;;;;;;33.10;25.90;;;;;;;7.13;100.00;99659.73;104983;1271;70597;-79
2022/04/28 00:39:43;;;;;;;36.20;28.40;;;;;;;7.06;100.00;99659.70;105019;1271;72221;-78
2022/04/28 00:42:14;;;;;;;34.70;26.60;;;;;;;6.99;100.00;99665.10;105009;1271;61427;-78
2022/04/28 00:44:41;;;;;;;34.60;27.00;;;;;;;6.92;100.00;99668.57;105028;1271;62037;-77
2022/04/28 00:47:09;;;;;;;35.30;26.80;;;;;;;6.86;100.00;99669.86;104979;1271;75165;-77
2022/04/28 00:52:21;;;;;;;41.80;32.10;;;;;;;6.73;100.00;99667.39;104984;1271;72296;-79
2022/04/28 00:54:50;;;;;;;34.30;29.20;;;;;;;6.69;100.00;99664.89;105034;1271;61371;-79
2022/04/28 00:57:17;;;;;;;41.70;31.90;;;;;;;6.69;100.00;99663.83;105129;1271;61249;-79
2022/04/28 00:59:46;;;;;;;36.70;29.90;;;;;;;6.67;100.00;99664.48;105022;1271;75351;-79
2022/04/28 01:02:13;;;;;;;35.80;28.10;;;;;;;6.63;100.00;99668.33;105003;1271;70565;-79
2022/04/28 01:04:39;;;;;;;34.80;27.40;;;;;;;6.58;100.00;99666.39;105004;1271;61247;-78
2022/04/28 01:07:06;;;;;;;34.30;24.70;;;;;;;6.54;100.00;99662.68;105003;1271;61404;-78
2022/04/28 01:09:36;;;;;;;32.10;25.30;;;;;;;6.48;100.00;99657.98;104900;1272;62045;-79
2022/04/28 01:12:04;;;;;;;;;;;;;;;6.40;100.00;99660.05;105025;1271;76258;-79
2022/04/28 01:14:31;;;;;;;36.30;24.10;;;;;;;6.33;100.00;99659.63;105009;1271;70279;-79
2022/04/28 01:16:59;;;;;;;30.10;24.00;;;;;;;6.27;100.00;99659.70;104953;1271;61811;-78
2022/04/28 01:19:25;;;;;;;29.80;23.30;;;;;;;6.20;100.00;99665.27;105044;1271;61338;-78
2022/04/28 01:21:52;;;;;;;30.00;25.70;;;;;;;6.13;100.00;99663.91;104893;1271;61391;-79
2022/04/28 01:24:18;;;;;;;28.90;24.60;;;;;;;6.09;100.00;99668.13;104985;1271;61284;-78
2022/04/28 01:26:46;;;;;;;31.20;24.30;;;;;;;6.04;100.00;99664.61;104990;1271;61374;-77
2022/04/28 01:29:12;;;;;;;34.10;24.70;;;;;;;5.97;100.00;99668.04;105022;1271;73318;-79
2022/04/28 01:31:38;;;;;;;33.10;27.00;;;;;;;5.89;100.00;99665.66;105005;1271;61970;-77
2022/04/28 01:34:04;;;;;;;31.30;25.30;;;;;;;5.81;100.00;99670.91;104984;1271;61499;-78
2022/04/28 01:36:31;;;;;;;32.50;25.30;;;;;;;5.71;100.00;99667.91;104995;1271;61410;-77
2022/04/28 01:38:57;;;;;;;37.40;26.50;;;;;;;5.64;100.00;99667.45;105021;1271;61403;-77
2022/04/28 01:41:23;;;;;;;33.70;25.60;;;;;;;5.61;100.00;99668.44;104972;1271;61421;-78
2022/04/28 01:43:50;;;;;;;36.20;28.60;;;;;;;5.59;100.00;99670.11;105000;1271;61432;-77
2022/04/28 01:46:16;;;;;;;37.70;32.40;;;;;;;5.57;100.00;99674.95;104888;1271;61404;-78
2022/04/28 01:48:42;;;;;;;39.60;32.20;;;;;;;5.53;100.00;99672.42;105028;1271;61379;-77
2022/04/28 01:56:38;;;;;;;41.20;31.40;;;;;;;5.48;100.00;99673.48;105015;1271;61373;-77
2022/04/28 01:59:04;;;;;;;38.80;31.90;;;;;;;5.45;100.00;99673.59;105036;1271;61740;-77
2022/04/28 02:01:30;;;;;;;38.50;31.40;;;;;;;5.42;100.00;99675.27;105026;1271;61432;-77
2022/04/28 02:03:56;;;;;;;43.90;35.50;;;;;;;5.38;100.00;99678.06;104876;1271;61302;-77
2022/04/28 02:06:22;;;;;;;48.10;38.90;;;;;;;5.35;100.00;99676.04;105015;1271;61781;-78
2022/04/28 02:08:50;;;;;;;52.60;42.20;;;;;;;5.34;100.00;99677.67;104995;1271;61380;-78
2022/04/28 02:11:16;;;;;;;50.30;40.60;;;;;;;5.34;100.00;99678.21;105022;1271;61336;-78
2022/04/28 02:13:43;;;;;;;37.80;31.10;;;;;;;5.31;100.00;99680.60;104855;1271;61484;-77
2022/04/28 02:16:10;;;;;;;49.70;39.70;;;;;;;5.26;100.00;99679.90;104955;1271;61285;-78
2022/04/28 02:18:36;;;;;;;39.80;33.00;;;;;;;5.20;100.00;99683.95;105042;1271;61314;-78
2022/04/28 02:21:02;;;;;;;36.20;32.00;;;;;;;5.16;100.00;99686.56;104965;1271;61265;-77
2022/04/28 02:23:29;;;;;;;34.40;30.70;;;;;;;5.09;100.00;99685.40;105024;1271;61317;-79
2022/04/28 02:25:55;;;;;;;39.90;30.70;;;;;;;5.01;100.00;99682.85;104993;1271;61346;-76
2022/04/28 02:28:21;;;;;;;41.50;33.00;;;;;;;4.94;100.00;99681.31;105057;1271;61377;-78
2022/04/28 02:30:47;;;;;;;42.30;32.90;;;;;;;4.91;100.00;99683.02;104843;1272;61351;-78
2022/04/28 02:33:13;;;;;;;35.80;29.50;;;;;;;4.87;100.00;99684.38;104990;1271;61327;-77
2022/04/28 02:35:40;;;;;;;40.50;30.50;;;;;;;4.80;100.00;99685.63;105041;1271;61298;-78
2022/04/28 02:38:07;;;;;;;38.70;31.00;;;;;;;4.75;100.00;99685.10;104942;1271;61444;-77
2022/04/28 02:40:33;;;;;;;41.80;32.50;;;;;;;4.69;100.00;99687.73;105040;1271;61303;-79
2022/04/28 02:43:00;;;;;;;40.30;32.80;;;;;;;4.64;100.00;99686.48;104984;1271;61340;-79
2022/04/28 02:45:27;;;;;;;41.10;31.90;;;;;;;4.60;100.00;99688.38;104963;1271;61375;-79
2022/04/28 02:47:53;;;;;;;48.60;36.80;;;;;;;4.57;100.00;99690.23;104990;1271;61297;-79
2022/04/28 02:50:21;;;;;;;48.30;37.50;;;;;;;4.55;100.00;99688.03;104965;1271;61434;-77
2022/04/28 02:52:50;;;;;;;46.60;36.40;;;;;;;4.51;100.00;99687.61;105196;1271;70224;-78
2022/04/28 02:55:16;;;;;;;46.70;35.40;;;;;;;4.49;100.00;99691.21;104917;1271;74527;-77
2022/04/28 02:57:42;;;;;;;50.20;38.60;;;;;;;4.45;100.00;99693.98;104948;1271;61283;-77
2022/04/28 03:00:09;;;;;;;48.70;39.90;;;;;;;4.40;100.00;99693.56;105032;1271;61393;-78
2022/04/28 03:02:35;;;;;;;48.70;39.10;;;;;;;4.36;100.00;99693.70;104967;1271;61399;-78
2022/04/28 03:05:04;;;;;;;50.30;41.60;;;;;;;4.32;100.00;99693.48;104910;1271;61419;-79
2022/04/28 03:13:01;;;;;;;68.60;49.90;;;;;;;4.22;100.00;99688.16;105016;1271;61324;-79
2022/04/28 03:15:27;;;;;;;64.60;44.80;;;;;;;4.22;100.00;99686.20;104752;1271;359495;-77
2022/04/28 03:17:53;;;;;;;60.80;46.40;;;;;;;4.22;100.00;99690.27;104999;1271;61368;-77
2022/04/28 03:20:19;;;;;;;54.40;42.60;;;;;;;4.22;100.00;99688.69;104971;1271;61373;-78
2022/04/28 03:22:45;;;;;;;59.80;47.50;;;;;;;4.20;100.00;99691.23;105002;1271;61321;-79
2022/04/28 03:25:12;;;;;;;65.60;50.10;;;;;;;4.19;100.00;99693.52;105141;1271;61385;-79
2022/04/28 03:27:38;;;;;;;72.50;56.20;;;;;;;4.19;100.00;99697.92;105009;1271;61403;-79
2022/04/28 03:30:04;;;;;;;76.80;57.10;;;;;;;4.21;100.00;99694.69;105049;1271;61336;-78
2022/04/28 03:32:30;;;;;;;67.00;57.60;;;;;;;4.22;100.00;99694.84;104988;1271;61356;-77
2022/04/28 03:34:56;;;;;;;66.30;56.00;;;;;;;4.23;100.00;99695.48;104895;1271;61566;-78
2022/04/28 03:37:22;;;;;;;70.30;56.10;;;;;;;4.25;100.00;99694.92;105054;1271;61443;-79
2022/04/28 03:39:49;;;;;;;66.10;54.90;;;;;;;4.28;100.00;99696.95;104934;1271;61517;-77
2022/04/28 03:42:16;;;;;;;63.00;52.20;;;;;;;4.30;100.00;99699.52;105019;1271;72374;-78
2022/04/28 03:44:42;;;;;;;64.30;49.30;;;;;;;4.33;100.00;99704.52;105020;1271;61186;-77
2022/04/28 03:47:08;;;;;;;58.10;47.70;;;;;;;4.36;100.00;99708.13;105037;1271;61934;-77
2022/04/28 03:49:34;;;;;;;64.10;49.20;;;;;;;4.39;100.00;99709.45;105017;1271;61250;-77
2022/04/28 03:52:01;;;;;;;50.60;42.30;;;;;;;4.40;100.00;99712.40;105009;1271;61386;-79
2022/04/28 03:54:27;;;;;;;44.90;36.20;;;;;;;4.40;100.00;99717.51;105051;1271;62460;-78
2022/04/28 03:56:53;;;;;;;40.90;35.00;;;;;;;4.38;100.00;99718.27;105018;1271;61397;-78
2022/04/28 03:59:19;;;;;;;41.40;33.80;;;;;;;4.55;100.00;99718.98;105057;1271;61439;-77
2022/04/28 04:01:45;;;;;;;43.80;34.60;;;;;;;4.99;100.00;99725.34;105030;1271;61269;-78
2022/04/28 04:04:11;;;;;;;38.70;32.20;;;;;;;5.41;100.00;99722.55;105012;1271;61409;-78
2022/04/28 04:06:37;;;;;;;42.40;34.20;;;;;;;5.80;100.00;99721.53;104965;1271;61266;-79
2022/04/28 04:09:03;;;;;;;38.50;30.80;;;;;;;6.25;100.00;99723.09;104964;1272;61470;-78
2022/04/28 04:11:29;;;;;;;36.60;32.30;;;;;;;6.66;100.00;99721.35;105011;1271;76299;-78
2022/04/28 04:13:55;;;;;;;44.20;35.40;;;;;;;7.07;100.00;99717.58;104991;1271;61300;-77
2022/04/28 04:16:21;;;;;;;44.50;36.80;;;;;;;7.46;100.00;99723.36;105022;1271;61400;-78
2022/04/28 04:18:47;;;;;;;42.50;35.70;;;;;;;7.86;100.00;99724.14;105015;1271;61453;-78
2022/04/28 04:21:13;;;;;;;42.80;36.90;;;;;;;8.26;100.00;99723.74;105054;1271;61269;-78
2022/04/28 04:23:39;;;;;;;40.70;35.80;;;;;;;8.63;100.00;99728.26;105014;1271;61251;-77
2022/04/28 04:26:06;;;;;;;42.90;36.60;;;;;;;8.98;100.00;99731.55;105016;1271;61406;-77
2022/04/28 04:28:33;;;;;;;40.20;34.00;;;;;;;9.30;100.00;99735.45;105003;1271;61336;-77
2022/04/28 04:33:44;;;;;;;33.90;29.90;;;;;;;9.99;100.00;99726.23;105023;1271;61279;-78
2022/04/28 04:36:10;;;;;;;36.30;30.80;;;;;;;10.21;100.00;99723.31;104891;1272;61302;-78
2022/04/28 04:38:36;;;;;;;36.90;31.00;;;;;;;10.38;100.00;99726.89;105019;1271;61972;-76
2022/04/28 04:41:03;;;;;;;38.20;30.50;;;;;;;10.61;100.00;99723.11;105009;1271;61516;-78
2022/04/28 04:43:29;;;;;;;35.90;30.70;;;;;;;10.88;100.00;99726.94;104980;1274;61390;-79
2022/04/28 04:45:55;;;;;;;33.10;29.00;;;;;;;11.04;99.91;99728.55;105028;1271;61387;-78
2022/04/28 04:48:22;;;;;;;35.30;29.40;;;;;;;11.31;99.45;99732.48;105005;1271;61297;-77
2022/04/28 04:50:48;;;;;;;33.50;29.60;;;;;;;11.57;98.56;99735.09;104947;1272;61211;-79
2022/04/28 04:53:14;;;;;;;38.90;31.10;;;;;;;11.80;97.91;99737.41;105009;1271;61280;-78
2022/04/28 04:55:42;;;;;;;38.00;31.40;;;;;;;12.04;97.13;99735.30;105027;1271;61476;-78
2022/04/28 04:58:08;;;;;;;35.60;31.80;;;;;;;12.29;96.45;99731.48;105178;1271;61369;-81
2022/04/28 05:00:34;;;;;;;37.30;31.70;;;;;;;12.57;95.95;99733.81;105121;1271;61365;-74
2022/04/28 05:03:00;;;;;;;35.70;29.50;;;;;;;12.81;95.04;99733.48;105034;1271;61356;-77
2022/04/28 05:05:26;;;;;;;34.30;29.30;;;;;;;13.04;94.42;99737.38;105113;1271;61297;-75
2022/04/28 05:07:52;;;;;;;33.10;28.90;;;;;;;13.24;93.81;99733.91;105042;1271;61354;-77
2022/04/28 05:10:18;;;;;;;32.70;28.90;;;;;;;13.47;92.86;99735.06;105111;1271;61342;-73
2022/04/28 05:12:45;;;;;;;36.10;26.20;;;;;;;13.63;91.46;99735.77;105044;1271;67025;-75
2022/04/28 05:15:12;;;;;;;30.80;25.10;;;;;;;13.66;89.25;99737.91;105091;1271;74202;-75
2022/04/28 05:17:38;;;;;;;31.30;25.10;;;;;;;13.65;89.63;99743.03;104846;1271;61317;-76
2022/04/28 05:20:06;;;;;;;30.50;25.80;;;;;;;13.86;89.40;99746.59;105009;1271;61361;-76
2022/04/28 05:22:32;;;;;;;30.50;25.30;;;;;;;14.02;88.60;99744.38;105042;1271;76343;-76
2022/04/28 05:24:58;;;;;;;27.60;24.60;;;;;;;14.24;88.62;99738.19;104862;1271;61278;-75
2022/04/28 05:27:24;;;;;;;32.90;24.90;;;;;;;14.42;87.70;99741.22;104991;1271;61436;-74
2022/04/28 05:29:52;;;;;;;32.30;23.70;;;;;;;14.57;87.07;99738.04;105041;1271;61336;-75
2022/04/28 05:32:18;;;;;;;26.00;23.20;;;;;;;14.78;86.99;99741.17;105030;1271;61492;-73
2022/04/28 05:34:44;;;;;;;25.40;22.00;;;;;;;15.02;86.17;99740.15;105001;1271;61318;-75
2022/04/28 05:37:14;;;;;;;27.00;24.10;;;;;;;15.14;85.07;99739.66;105016;1271;61341;-76
2022/04/28 05:39:42;;;;;;;30.10;24.20;;;;;;;15.18;84.63;99744.20;104995;1271;73327;-74
2022/04/28 05:42:09;;;;;;;32.00;24.90;;;;;;;15.33;84.82;99743.91;105055;1271;61372;-75
2022/04/28 05:47:21;;;;;;;27.30;24.40;;;;;;;15.62;83.83;99745.00;105016;1271;76240;-76
2022/04/28 05:49:48;;;;;;;27.90;22.60;;;;;;;15.67;83.21;99746.57;105046;1271;69470;-75
2022/04/28 05:52:16;;;;;;;26.80;24.00;;;;;;;15.72;82.69;99748.59;104973;1271;61312;-77
2022/04/28 05:54:43;;;;;;;27.10;23.00;;;;;;;15.71;82.37;99749.34;104869;1272;61329;-76
2022/04/28 05:57:11;;;;;;;26.60;22.70;;;;;;;15.74;82.24;99752.68;105019;1272;61269;-77
2022/04/28 05:59:37;;;;;;;26.70;22.40;;;;;;;15.78;82.20;99754.87;105024;1271;76651;-76
2022/04/28 06:02:03;;;;;;;25.20;22.10;;;;;;;15.90;82.23;99757.01;105023;1271;61517;-74
2022/04/28 06:04:29;;;;;;;25.40;21.60;;;;;;;16.16;82.33;99750.54;104985;1271;61349;-74
2022/04/28 06:06:55;;;;;;;27.60;23.00;;;;;;;16.49;81.90;99751.70;105019;1271;61261;-75
2022/04/28 06:09:21;;;;;;;26.80;22.80;;;;;;;16.56;81.09;99752.23;105033;1271;61323;-75
2022/04/28 06:11:47;;;;;;;26.00;22.90;;;;;;;16.53;80.65;99757.86;105000;1271;61301;-76
2022/04/28 06:14:13;;;;;;;28.50;23.90;;;;;;;16.51;80.57;99756.99;105043;1271;61440;-76
2022/04/28 06:16:41;;;;;;;28.70;25.00;;;;;;;16.45;80.26;99753.10;104997;1271;61406;-75
2022/04/28 06:19:07;;;;;;;27.30;24.00;;;;;;;16.42;80.27;99756.43;104989;1271;61332;-75
2022/04/28 06:21:33;;;;;;;27.10;23.90;;;;;;;16.47;80.35;99759.20;104987;1271;61388;-75
2022/04/28 06:23:59;;;;;;;27.60;23.60;;;;;;;16.65;80.27;99765.68;105032;1271;61302;-75
2022/04/28 06:26:25;;;;;;;28.00;23.30;;;;;;;16.87;79.92;99767.92;105099;1271;61300;-76
2022/04/28 06:28:51;;;;;;;29.20;22.60;;;;;;;16.91;79.10;99768.83;105046;1271;61429;-75
2022/04/28 06:31:17;;;;;;;27.30;24.40;;;;;;;16.84;78.63;99765.82;105041;1271;61327;-74
2022/04/28 06:33:43;;;;;;;28.10;24.00;;;;;;;16.79;78.66;99769.09;105014;1271;61396;-75
2022/04/28 06:36:09;;;;;;;27.90;22.30;;;;;;;16.86;78.67;99766.70;104917;1272;61320;-75
2022/04/28 06:38:35;;;;;;;27.00;24.10;;;;;;;16.82;77.90;99771.70;105008;1271;61434;-75
2022/04/28 06:41:03;;;;;;;28.10;24.40;;;;;;;16.76;77.87;99773.65;104887;1273;61444;-74
2022/04/28 06:43:30;;;;;;;26.70;23.10;;;;;;;16.85;77.97;99770.94;105024;1271;61311;-75
2022/04/28 06:46:15;;;;;;;25.60;22.10;;;;;;;16.95;77.78;99773.00;105014;1271;61308;-75
2022/04/28 06:48:41;;;;;;;24.20;21.50;;;;;;;16.92;77.30;99769.67;105055;1271;69778;-74
2022/04/28 06:51:07;;;;;;;26.10;21.60;;;;;;;16.82;77.32;99770.08;105013;1271;61310;-76
2022/04/28 06:53:33;;;;;;;25.20;22.50;;;;;;;16.74;77.14;99771.25;105011;1271;61404;-75
2022/04/28 06:56:01;;;;;;;25.80;22.60;;;;;;;16.72;77.62;99768.56;105017;1271;61298;-76
2022/04/28 06:58:26;;;;;;;22.90;20.40;;;;;;;16.60;77.99;99768.58;104987;1271;61298;-76
2022/04/28 07:00:53;;;;;;;23.40;20.90;;;;;;;16.38;78.36;99771.61;105004;1272;61304;-75
2022/04/28 07:03:20;;;;;;;24.70;20.50;;;;;;;16.19;78.77;99775.93;104990;1271;61384;-75
2022/04/28 07:05:47;;;;;;;26.00;20.80;;;;;;;16.06;78.51;99777.70;105022;1272;61360;-75
2022/04/28 07:08:13;;;;;;;25.40;20.90;;;;;;;15.85;78.83;99777.13;105046;1271;61370;-75
2022/04/28 07:10:40;;;;;;;26.30;20.50;;;;;;;15.74;79.26;99778.84;104966;1271;61406;-75
2022/04/28 07:13:07;;;;;;;24.50;20.90;;;;;;;15.66;79.44;99779.62;104983;1271;61340;-74
2022/04/28 07:15:38;;;;;;;25.90;22.00;;;;;;;15.54;79.27;99780.66;104925;1271;73546;-75
2022/04/28 07:18:05;;;;;;;24.60;18.80;;;;;;;15.53;79.43;99781.14;105087;1271;61416;-75
2022/04/28 07:20:35;;;;;;;24.90;21.10;;;;;;;15.45;79.21;99784.09;105026;1271;61422;-75
2022/04/28 07:23:03;;;;;;;27.40;19.40;;;;;;;15.38;79.15;99787.30;105013;1271;75070;-74
2022/04/28 07:25:30;;;;;;;26.90;20.80;;;;;;;15.32;79.06;99783.38;104883;1272;67441;-75
2022/04/28 07:27:57;;;;;;;24.10;18.90;;;;;;;15.27;79.16;99788.27;105175;1271;74175;-75
2022/04/28 07:30:24;;;;;;;22.00;17.10;;;;;;;15.29;79.15;99788.49;105002;1271;61381;-75
2022/04/28 07:32:51;;;;;;;17.90;15.90;;;;;;;15.26;78.57;99788.91;105062;1271;61839;-74
2022/04/28 07:35:19;;;;;;;18.20;15.70;;;;;;;15.17;77.31;99787.71;105028;1271;76228;-75
2022/04/28 07:37:46;;;;;;;18.30;14.30;;;;;;;15.03;76.62;99785.34;104954;1271;68171;-75
2022/04/28 07:40:12;;;;;;;18.30;14.60;;;;;;;14.91;76.48;99787.84;105018;1271;61290;-74
2022/04/28 07:42:38;;;;;;;17.20;13.80;;;;;;;14.87;76.59;99794.36;105008;1271;61371;-74
2022/04/28 07:45:05;;;;;;;16.00;13.00;;;;;;;14.96;76.80;99788.53;105068;1271;61420;-75
2022/04/28 07:47:32;;;;;;;14.90;12.60;;;;;;;15.12;77.18;99790.40;105000;1271;61276;-76
2022/04/28 07:49:57;;;;;;;16.40;14.20;;;;;;;15.32;77.08;99788.61;105043;1270;61401;-75
2022/04/28 07:52:24;;;;;;;15.80;13.30;;;;;;;15.44;76.34;99795.39;104963;1271;61343;-76
2022/04/28 07:54:50;;;;;;;17.00;14.70;;;;;;;15.46;76.09;99794.19;104923;1274;61320;-76
2022/04/28 07:57:17;;;;;;;19.60;14.30;;;;;;;15.44;75.76;99798.51;105007;1271;61182;-75
2022/04/28 07:59:43;;;;;;;17.80;14.40;;;;;;;15.38;75.59;99794.81;105022;1271;61202;-76
2022/04/28 08:02:11;;;;;;;16.30;13.60;;;;;;;15.48;76.64;99794.73;105012;1271;61304;-75
2022/04/28 08:04:38;;;;;;;15.20;12.90;;;;;;;15.71;76.69;99790.54;105049;1271;72259;-75
2022/04/28 08:07:04;;;;;;;14.80;12.40;;;;;;;16.00;76.53;99791.76;105019;1271;61262;-76
2022/04/28 08:09:31;;;;;;;14.20;12.80;;;;;;;16.34;76.32;99788.27;104923;1271;61305;-75
2022/04/28 08:11:56;;;;;;;15.30;13.10;;;;;;;16.68;75.95;99788.95;105102;1271;61259;-75
2022/04/28 08:14:24;;;;;;;14.90;12.80;;;;;;;16.96;75.22;99786.02;105006;1271;61382;-74
2022/04/28 08:16:55;;;;;;;15.20;11.70;;;;;;;17.16;75.16;99784.23;105023;1271;74235;-72
2022/04/28 08:19:21;;;;;;;14.00;11.50;;;;;;;17.19;75.82;99783.79;105036;1271;61300;-72
2022/04/28 08:21:48;;;;;;;16.30;12.60;;;;;;;17.06;74.27;99787.90;105017;1271;61299;-72
2022/04/28 08:24:16;;;;;;;14.30;11.90;;;;;;;16.83;73.72;99786.18;104886;1271;61448;-71
2022/04/28 08:26:42;;;;;;;10.40;9.20;;;;;;;16.65;74.52;99782.73;105067;1272;69870;-73
2022/04/28 08:29:09;;;;;;;13.60;11.80;;;;;;;16.40;71.09;99783.12;105035;1271;74344;-74
2022/04/28 08:31:43;;;;;;;10.70;8.00;;;;;;;16.00;70.00;99788.58;105007;1271;61283;-72
2022/04/28 08:34:13;;;;;;;9.80;8.00;;;;;;;15.77;69.46;99787.98;105109;1271;61310;-72
2022/04/28 08:36:43;;;;;;;11.40;7.50;;;;;;;15.65;69.18;99787.95;104997;1271;75422;-72
2022/04/28 08:39:10;;;;;;;11.20;8.20;;;;;;;15.68;69.31;99785.19;105027;1271;69811;-72
2022/04/28 08:41:38;;;;;;;10.10;8.20;;;;;;;15.80;68.73;99790.95;105095;1271;74299;-72
2022/04/28 08:44:07;;;;;;;10.20;8.30;;;;;;;15.91;68.86;99790.45;105093;1271;61378;-72
2022/04/28 08:46:51;;;;;;;11.30;8.70;;;;;;;16.01;67.93;99789.14;105075;1271;61349;-72
2022/04/28 08:49:24;;;;;;;10.80;8.70;;;;;;;16.05;65.49;99790.34;105019;1271;76550;-72
2022/04/28 08:51:54;;;;;;;12.10;8.70;;;;;;;16.10;65.64;99783.15;105040;1271;67430;-72
2022/04/28 08:54:23;;;;;;;12.00;8.40;;;;;;;16.27;65.07;99787.34;105200;1271;74432;-73
2022/04/28 08:56:51;;;;;;;9.40;8.30;;;;;;;16.38;63.81;99786.88;105045;1271;61432;-72
2022/04/28 08:59:23;;;;;;;8.50;7.10;;;;;;;16.37;59.70;99786.77;105026;1271;61264;-73
2022/04/28 09:01:52;;;;;;;8.60;7.10;;;;;;;16.35;55.41;99786.57;105195;1271;75670;-72
2022/04/28 09:04:19;;;;;;;9.30;6.80;;;;;;;16.39;53.96;99783.38;105018;1271;70323;-72
2022/04/28 09:06:51;;;;;;;12.50;7.30;;;;;;;16.47;53.77;99781.52;105002;1271;72559;-71
2022/04/28 09:09:18;;;;;;;11.60;6.70;;;;;;;16.50;52.10;99779.84;105106;1271;61319;-73
2022/04/28 09:11:46;;;;;;;13.00;7.30;;;;;;;16.45;51.69;99780.77;105020;1271;61820;-71
2022/04/28 09:14:15;;;;;;;6.50;5.80;;;;;;;16.36;51.26;99779.69;104972;1274;75372;-71
2022/04/28 09:16:43;;;;;;;7.60;5.40;;;;;;;16.23;48.97;99781.77;105094;1271;69247;-71
2022/04/28 09:19:11;;;;;;;6.60;5.70;;;;;;;16.04;47.15;99783.94;105016;1271;73262;-71
2022/04/28 09:21:39;;;;;;;8.80;5.30;;;;;;;15.93;47.72;99783.70;105022;1271;61254;-73
2022/04/28 09:24:07;;;;;;;6.20;5.10;;;;;;;15.91;47.51;99780.06;105087;1271;61355;-72
2022/04/28 09:26:34;;;;;;;7.00;5.10;;;;;;;15.90;46.30;99780.72;105023;1271;76188;-72
2022/04/28 09:29:02;;;;;;;7.70;5.50;;;;;;;15.93;47.13;99785.48;105001;1271;61207;-72
2022/04/28 09:31:29;;;;;;;10.50;5.20;;;;;;;16.03;47.31;99782.89;105092;1271;74218;-71
2022/04/28 09:33:55;;;;;;;9.20;5.80;;;;;;;16.16;46.96;99786.77;104994;1271;61283;-72
2022/04/28 09:36:22;;;;;;;10.10;6.50;;;;;;;16.23;46.27;99785.64;105010;1271;61346;-72
2022/04/28 09:38:53;;;;;;;9.90;6.30;;;;;;;16.37;46.30;99782.79;105019;1271;63022;-71
2022/04/28 09:44:05;;;;;;;7.00;5.50;;;;;;;16.59;46.08;99783.80;104969;1271;73277;-72
2022/04/28 09:46:41;;;;;;;7.60;6.20;;;;;;;16.65;46.31;99781.50;105041;1271;61304;-70
2022/04/28 09:49:10;;;;;;;6.00;5.40;;;;;;;16.66;45.40;99784.66;104926;1274;61428;-71
2022/04/28 09:51:40;;;;;;;7.00;5.60;;;;;;;16.61;45.28;99782.03;104931;1272;76456;-73
2022/04/28 09:54:07;;;;;;;;;;;;;;;16.60;45.41;99781.55;105068;1271;69253;-71
2022/04/28 09:56:34;;;;;;;6.20;5.00;;;;;;;16.60;44.18;99775.27;105033;1271;73507;-72
2022/04/28 09:59:04;;;;;;;8.70;5.30;;;;;;;16.63;44.70;99777.66;105019;1271;61265;-72
2022/04/28 10:01:34;;;;;;;6.30;4.60;;;;;;;16.96;44.20;99779.61;105022;1271;61285;-71
2022/04/28 10:04:01;;;;;;;6.00;5.40;;;;;;;17.37;43.40;99777.08;104886;1272;75464;-71
2022/04/28 10:06:34;;;;;;;5.80;5.30;;;;;;;17.64;42.63;99771.64;105000;1271;69341;-72
2022/04/28 10:09:12;;;;;;;7.90;5.50;;;;;;;17.71;41.40;99772.64;104987;1271;74677;-71
2022/04/28 10:11:38;;;;;;;5.50;4.90;;;;;;;17.61;39.27;99768.11;105042;1271;61368;-71
2022/04/28 10:14:06;;;;;;;5.70;4.70;;;;;;;17.59;39.77;99766.70;104852;1274;61466;-72
2022/04/28 10:16:33;;;;;;;6.80;5.00;;;;;;;17.66;39.64;99759.22;104903;1271;75838;-71
2022/04/28 10:19:32;;;;;;;7.70;5.20;;;;;;;17.75;38.07;99761.55;105029;1271;61393;-72
2022/04/28 10:22:10;;;;;;;8.50;6.00;;;;;;;18.01;38.50;99751.45;104976;1271;74174;-72
2022/04/28 10:33:06;;;;;;;6.20;4.80;;;;;;;17.47;36.00;99760.82;105051;1271;70195;-71
2022/04/28 10:35:42;;;;;;;7.60;4.90;;;;;;;17.38;35.78;99762.31;105022;1271;74604;-71
2022/04/28 10:38:11;;;;;;;5.20;4.70;;;;;;;17.26;35.37;99765.06;104930;1271;61515;-72
2022/04/28 10:40:42;;;;;;;5.50;5.00;;;;;;;17.18;35.63;99765.58;105034;1271;61824;-71
2022/04/28 10:43:22;;;;;;;5.90;5.20;;;;;;;17.09;35.93;99763.77;104999;1271;74480;-70
2022/04/28 10:45:49;;;;;;;5.20;4.70;;;;;;;17.07;36.08;99765.05;105089;1271;69192;-72
2022/04/28 10:48:31;;;;;;;6.20;5.50;;;;;;;17.03;35.85;99762.27;105081;1271;74457;-71
2022/04/28 10:51:04;;;;;;;5.60;4.80;;;;;;;17.03;35.39;99760.85;104927;1272;61188;-71
2022/04/28 10:53:30;;;;;;;4.80;4.30;;;;;;;17.04;36.16;99764.55;105005;1271;61283;-72
2022/04/28 10:56:05;;;;;;;6.90;4.60;;;;;;;17.08;36.30;99768.48;104894;1274;74616;-71
2022/04/28 10:58:31;;;;;;;5.00;4.60;;;;;;;17.13;36.46;99765.45;105024;1271;69275;-72
2022/04/28 11:01:01;;;;;;;6.30;4.90;;;;;;;17.23;36.97;99763.04;105011;1271;61351;-71
2022/04/28 11:03:50;;;;;;;4.80;4.40;;;;;;;17.41;36.80;99762.60;105050;1271;61410;-71
2022/04/28 11:06:50;;;;;;;6.00;5.00;;;;;;;17.69;36.83;99760.83;105066;1271;61262;-71
2022/04/28 11:09:50;;;;;;;5.50;4.80;;;;;;;18.02;35.86;99757.88;105020;1271;75606;-71
2022/04/28 11:12:18;;;;;;;5.40;4.10;;;;;;;18.25;35.71;99744.73;105048;1271;70255;-72
2022/04/28 11:14:46;;;;;;;5.10;4.30;;;;;;;18.23;35.81;99746.52;105030;1271;74735;-71
2022/04/28 11:17:14;;;;;;;5.80;4.50;;;;;;;18.09;35.49;99754.37;105024;1271;61416;-71
2022/04/28 11:19:41;;;;;;;4.40;4.00;;;;;;;17.95;35.60;99760.23;104891;1271;61336;-71
2022/04/28 11:22:07;;;;;;;7.10;4.10;;;;;;;17.78;35.28;99760.91;105066;1271;75294;-70
2022/04/28 11:24:34;;;;;;;5.40;3.80;;;;;;;17.57;34.51;99762.65;104971;1272;61230;-70
2022/04/28 11:27:00;;;;;;;4.70;3.90;;;;;;;17.40;34.65;99764.86;105024;1271;61337;-71
2022/04/28 11:29:30;;;;;;;5.00;4.30;;;;;;;17.24;34.16;99768.69;105022;1271;61362;-71
2022/04/28 11:31:57;;;;;;;3.70;3.30;;;;;;;17.20;34.63;99766.33;105019;1271;61294;-72
2022/04/28 11:34:24;;;;;;;5.50;4.00;;;;;;;17.36;34.19;99767.88;105001;1271;75348;-72
2022/04/28 11:36:49;;;;;;;4.50;3.50;;;;;;;17.68;33.66;99761.03;105010;1271;61302;-71
2022/04/28 11:39:16;;;;;;;4.50;4.10;;;;;;;17.98;33.34;99759.49;104998;1271;61370;-70
2022/04/28 11:41:43;;;;;;;5.00;3.60;;;;;;;18.21;33.02;99753.56;105039;1271;61360;-72
2022/04/28 11:44:11;;;;;;;3.50;3.20;;;;;;;18.53;33.08;99750.15;105114;1271;61362;-72
2022/04/28 11:46:51;;;;;;;5.20;3.10;;;;;;;18.80;32.65;99747.25;105026;1271;76365;-72